Main page
METAR-TAF:

METAR-TAF

Airports :

Győr, Hungary

Győr-Pér International Airport

latitude: 47-37-28N, longitude: 017-48-49E, elevation: 129 m

Current weather observation

The report was made 56 minutes ago, at 01:45 UTC
Wind 7 kt from the Southwest, varying between South/Southwest and West
Temperature 16°C
Humidity 68%
Pressure 1006 hPa
Visibility 10 km or more
no clouds below 1500 m and no cumulonimbus

METAR: LHPR 260145Z AUTO 23007KT 200V260 CAVOK 16/10 Q1006 RMK BLU

Time: 04:41 (02:41 UTC)

Forecast

The report was made 9 hours and 26 minutes ago, at 17:15 UTC
Forecast valid from 25 at 18 UTC to 26 at 03 UTC
Wind 15 kt from the West/Northwest
Visibility 10 km or more
no clouds below 1500 m and no cumulonimbus
Becoming
from 25 at 18 UTC to 25 at 21 UTC
Wind 8 kt from the West

TAF: LHPR 251715Z 2518/2603 30015KT CAVOK BECMG 2518/2521 28008KT

Weather observations and forecasts of more than 4000 airports (METAR and TAF reports).

The available stations are represented by yellow and red dots on the map.

Hover mouse over dot to see the name of the station.

Then click to see weather observations and forecasts.

To change the map : click on the green buttons with a black cross to zoom in, on the green button with a dash to zoom out, or on the green arrows for adjacent maps.


METAR-TAF: